Time;durP1;ratioP1;P1;durP2;ratioP2;P2;SDS_P1;SDS_P2;PMS_P1;PMS_P2;Temp;Humidity;BMP_temperature;BMP_pressure;BME280_temperature;BME280_humidity;BME280_pressure;Samples;Min_cycle;Max_cycle;Signal;HPM_P1;HPM_P2
2022/07/24 00:00:27;;;;;;;9.43;8.45;;;;;;;22.20;70.31;98388.00;5055520;28;20320;-70
2022/07/24 00:02:54;;;;;;;10.30;8.77;;;;;;;22.15;71.24;98396.16;5055965;28;20299;-70
2022/07/24 00:05:21;;;;;;;9.25;8.45;;;;;;;22.08;71.66;98396.50;5055454;28;20676;-70
2022/07/24 00:07:48;;;;;;;9.13;8.32;;;;;;;22.06;71.46;98400.59;5055697;28;20208;-70
2022/07/24 00:10:15;;;;;;;10.40;9.30;;;;;;;21.94;72.23;98397.44;5055630;28;20312;-70
2022/07/24 00:12:41;;;;;;;8.63;7.90;;;;;;;21.86;72.82;98400.72;5055623;28;20288;-70
2022/07/24 00:15:08;;;;;;;9.90;8.60;;;;;;;21.82;73.39;98392.38;5055128;28;20664;-70
2022/07/24 00:17:35;;;;;;;9.17;8.37;;;;;;;21.81;73.36;98390.75;5054694;28;20209;-70
2022/07/24 00:20:01;;;;;;;10.20;9.30;;;;;;;21.86;73.33;98396.13;5055130;28;20666;-70
2022/07/24 00:22:28;;;;;;;9.52;8.65;;;;;;;21.81;73.67;98393.47;5055526;28;20209;-70
2022/07/24 00:24:54;;;;;;;9.23;8.43;;;;;;;21.85;73.42;98401.81;5055587;28;20204;-70
2022/07/24 00:27:21;;;;;;;12.05;8.93;;;;;;;21.72;74.18;98386.22;5055442;28;20236;-70
2022/07/24 00:29:47;;;;;;;9.90;9.00;;;;;;;21.75;74.71;98383.75;5055339;28;20225;-70
2022/07/24 00:32:14;;;;;;;9.63;8.73;;;;;;;21.68;74.42;98388.66;5055337;28;20215;-70
2022/07/24 00:34:41;;;;;;;10.57;9.57;;;;;;;21.77;73.92;98386.19;5055109;28;20578;-70
2022/07/24 00:37:07;;;;;;;10.57;9.57;;;;;;;21.72;73.98;98381.63;5055361;28;20292;-70
2022/07/24 00:39:34;;;;;;;10.47;9.53;;;;;;;21.64;74.76;98389.50;5054794;28;20279;-70
2022/07/24 00:42:01;;;;;;;9.53;8.73;;;;;;;21.64;75.16;98389.50;5055272;28;20229;-70
2022/07/24 00:44:27;;;;;;;10.17;9.03;;;;;;;21.66;75.13;98392.75;5054853;28;20287;-70
2022/07/24 00:46:54;;;;;;;10.30;9.40;;;;;;;21.63;75.21;98391.41;5055134;28;20232;-70
2022/07/24 00:49:21;;;;;;;10.03;8.83;;;;;;;21.67;74.98;98387.06;5054614;28;20791;-70
2022/07/24 00:51:51;;;;;;;10.17;9.10;;;;;;;21.79;74.12;98392.13;5054848;28;20331;-70
2022/07/24 00:54:18;;;;;;;10.03;8.67;;;;;;;21.76;73.36;98393.50;5055188;28;20644;-70
2022/07/24 00:56:48;;;;;;;9.80;8.90;;;;;;;21.62;74.49;98397.88;5054740;28;20209;-70
2022/07/24 00:59:15;;;;;;;9.20;8.37;;;;;;;21.56;74.04;98403.66;5054990;28;20237;-70
2022/07/24 01:01:42;;;;;;;9.67;8.53;;;;;;;21.59;73.44;98403.06;5054504;28;20205;-70
2022/07/24 01:04:08;;;;;;;9.40;8.50;;;;;;;21.63;72.13;98390.59;5054826;28;20201;-70
2022/07/24 01:06:35;;;;;;;9.07;8.17;;;;;;;21.50;72.29;98400.16;5054724;28;20296;-70
2022/07/24 01:09:02;;;;;;;9.40;8.63;;;;;;;21.51;73.46;98401.75;5055034;28;20541;-70
2022/07/24 01:11:29;;;;;;;10.00;9.10;;;;;;;21.48;73.49;98393.41;5054707;28;20201;-70
2022/07/24 01:13:56;;;;;;;9.47;8.63;;;;;;;21.48;73.74;98391.50;5054530;28;20205;-70
2022/07/24 01:16:23;;;;;;;9.27;8.47;;;;;;;21.43;74.06;98391.53;5053253;28;20205;-70
2022/07/24 01:18:49;;;;;;;8.57;7.87;;;;;;;21.42;73.84;98402.63;5054248;28;20320;-70
2022/07/24 01:21:15;;;;;;;7.97;7.37;;;;;;;21.37;73.79;98389.94;5054311;28;20211;-70
2022/07/24 01:23:42;;;;;;;8.53;7.73;;;;;;;21.37;73.41;98389.13;5054444;28;20288;-70
2022/07/24 01:26:09;;;;;;;8.70;7.93;;;;;;;21.41;72.93;98398.31;5054224;28;20690;-70
2022/07/24 01:28:36;;;;;;;8.97;8.13;;;;;;;21.37;73.83;98394.53;5053664;28;20226;-71
2022/07/24 01:31:04;;;;;;;10.87;9.77;;;;;;;21.34;75.17;98387.78;5054244;28;20205;-70
2022/07/24 01:33:30;;;;;;;10.13;9.23;;;;;;;21.40;75.50;98394.81;5054189;28;20201;-71
2022/07/24 01:35:57;;;;;;;10.63;9.53;;;;;;;21.35;76.23;98383.22;5054130;28;20208;-70
2022/07/24 01:38:23;;;;;;;10.83;9.83;;;;;;;21.41;76.23;98390.19;5053989;28;20209;-70
2022/07/24 01:40:50;;;;;;;11.47;10.37;;;;;;;21.43;76.93;98398.84;5054063;28;20292;-70
2022/07/24 01:43:16;;;;;;;11.53;10.53;;;;;;;21.37;77.47;98400.78;5053755;28;20288;-70
2022/07/24 01:45:43;;;;;;;11.77;10.60;;;;;;;21.32;78.45;98399.97;5053978;28;20288;-70
2022/07/24 01:48:09;;;;;;;12.60;11.30;;;;;;;21.22;78.66;98397.34;5053518;28;20247;-70
2022/07/24 01:50:35;;;;;;;12.03;10.80;;;;;;;21.31;78.49;98395.66;5053797;28;20205;-70
2022/07/24 01:53:02;;;;;;;13.00;11.53;;;;;;;21.20;79.61;98394.91;5053823;28;20205;-70
2022/07/24 01:55:30;;;;;;;13.00;11.80;;;;;;;21.15;80.20;98391.41;5053855;28;20291;-70
2022/07/24 01:57:56;;;;;;;13.10;11.83;;;;;;;21.09;81.16;98398.75;5053653;28;20201;-70
2022/07/24 02:00:22;;;;;;;13.33;12.03;;;;;;;21.11;81.38;98395.78;5053375;28;20579;-70
2022/07/24 02:02:49;;;;;;;13.70;12.40;;;;;;;21.17;80.83;98389.25;5053371;28;20300;-70
2022/07/24 02:05:16;;;;;;;13.50;12.10;;;;;;;21.19;80.98;98393.31;5053624;28;20209;-70
2022/07/24 02:07:44;;;;;;;13.30;12.10;;;;;;;21.18;81.41;98388.97;5054362;28;20291;-70
2022/07/24 02:10:13;;;;;;;12.80;11.70;;;;;;;21.17;81.83;98383.84;5053247;28;20225;-70
2022/07/24 02:12:40;;;;;;;12.77;11.57;;;;;;;21.12;81.29;98387.38;5053609;28;20310;-70
2022/07/24 02:15:07;;;;;;;12.77;11.53;;;;;;;21.06;82.00;98382.28;5053145;28;20212;-70
2022/07/24 02:17:34;;;;;;;12.77;11.57;;;;;;;21.00;81.29;98378.81;5053506;28;20231;-70
2022/07/24 02:20:00;;;;;;;12.67;11.30;;;;;;;21.05;81.86;98381.47;5052915;28;20780;-70
2022/07/24 02:22:26;;;;;;;12.60;11.50;;;;;;;20.95;82.17;98380.72;5053394;28;20201;-70
2022/07/24 02:24:53;;;;;;;12.53;11.43;;;;;;;20.90;81.88;98381.56;5053859;28;20220;-70
2022/07/24 02:27:19;;;;;;;12.57;11.53;;;;;;;20.91;82.11;98375.06;5053366;28;20293;-70
2022/07/24 02:29:46;;;;;;;12.80;11.77;;;;;;;20.88;82.90;98380.16;5052965;28;20221;-70
2022/07/24 02:32:12;;;;;;;12.27;10.97;;;;;;;20.85;83.68;98386.94;5053230;28;20237;-70
2022/07/24 02:34:39;;;;;;;13.30;12.10;;;;;;;20.87;83.39;98389.34;5053237;28;20205;-70
2022/07/24 02:37:05;;;;;;;13.50;12.40;;;;;;;20.82;84.08;98386.69;5053213;28;20300;-70
2022/07/24 02:39:31;;;;;;;12.77;11.77;;;;;;;20.87;83.85;98383.94;5052572;28;20316;-70
2022/07/24 02:41:58;;;;;;;12.90;11.73;;;;;;;20.86;83.95;98385.03;5052915;28;20211;-70
2022/07/24 02:44:24;;;;;;;14.30;12.90;;;;;;;20.82;83.75;98389.38;5053231;28;20292;-70
2022/07/24 02:46:50;;;;;;;14.33;12.97;;;;;;;20.85;83.96;98386.13;5053132;28;20201;-70
2022/07/24 02:49:17;;;;;;;13.73;12.43;;;;;;;20.82;84.94;98387.50;5053075;28;20304;-70
2022/07/24 02:51:43;;;;;;;14.63;13.20;;;;;;;20.80;85.12;98383.47;5052960;28;20209;-70
2022/07/24 02:54:10;;;;;;;13.60;12.40;;;;;;;20.72;85.49;98384.03;5053342;28;20209;-70
2022/07/24 02:56:36;;;;;;;12.77;11.67;;;;;;;20.67;85.89;98381.34;5053035;28;20227;-70
2022/07/24 02:59:03;;;;;;;13.27;12.13;;;;;;;20.67;86.20;98379.44;5052379;28;20316;-70
2022/07/24 03:01:29;;;;;;;13.37;12.17;;;;;;;20.64;86.46;98389.97;5053070;28;20277;-70
2022/07/24 03:03:55;;;;;;;14.23;13.03;;;;;;;20.57;86.49;98379.47;5052625;28;20647;-70
2022/07/24 03:06:22;;;;;;;14.10;12.70;;;;;;;20.55;87.19;98388.94;5052975;28;20208;-70
2022/07/24 03:08:49;;;;;;;14.03;12.90;;;;;;;20.51;87.21;98385.97;5053094;28;20233;-70
2022/07/24 03:11:15;;;;;;;13.70;12.57;;;;;;;20.50;87.50;98381.66;5053385;28;20211;-70
2022/07/24 03:13:42;;;;;;;13.73;12.57;;;;;;;20.37;87.92;98384.09;5052950;28;20210;-70
2022/07/24 03:16:08;;;;;;;14.13;12.83;;;;;;;20.31;88.96;98396.00;5052659;28;20209;-70
2022/07/24 03:18:34;;;;;;;13.90;12.73;;;;;;;20.30;88.99;98392.50;5052133;28;20312;-70
2022/07/24 03:21:01;;;;;;;14.00;12.60;;;;;;;20.29;88.67;98387.34;5052584;28;20221;-70
2022/07/24 03:23:27;;;;;;;13.73;12.43;;;;;;;20.27;89.38;98381.44;5052514;28;20206;-70
2022/07/24 03:25:54;;;;;;;14.23;12.83;;;;;;;20.31;88.98;98391.44;5052382;28;20212;-70
2022/07/24 03:28:20;;;;;;;13.13;12.13;;;;;;;20.26;89.65;98387.94;5052372;28;20557;-70
2022/07/24 03:30:47;;;;;;;13.43;12.33;;;;;;;20.29;89.54;98392.75;5052677;28;20293;-70
2022/07/24 03:33:13;;;;;;;13.50;12.30;;;;;;;20.30;89.37;98389.78;5052580;28;20300;-70
2022/07/24 03:35:40;;;;;;;13.33;12.23;;;;;;;20.28;89.48;98388.44;5052591;28;20228;-70
2022/07/24 03:38:06;;;;;;;13.13;12.03;;;;;;;20.32;89.00;98392.22;5052969;28;20219;-70
2022/07/24 03:40:33;;;;;;;13.33;12.03;;;;;;;20.29;89.02;98392.75;5052422;28;20297;-70
2022/07/24 03:43:00;;;;;;;13.80;12.60;;;;;;;20.22;89.58;98393.06;5052337;28;20209;-70
2022/07/24 03:45:26;;;;;;;12.60;11.60;;;;;;;20.10;90.89;98387.13;5052575;28;20209;-70
2022/07/24 03:47:52;;;;;;;13.30;12.10;;;;;;;20.15;90.11;98389.00;5051761;28;20688;-70
2022/07/24 03:50:19;;;;;;;13.70;12.50;;;;;;;20.04;90.68;98396.28;5052183;28;20260;-70
2022/07/24 03:52:45;;;;;;;13.93;12.60;;;;;;;20.01;91.16;98390.59;5055330;28;20292;-70
2022/07/24 03:55:12;;;;;;;13.37;12.13;;;;;;;19.98;91.81;98394.66;5055742;28;20209;-70
2022/07/24 03:57:38;;;;;;;14.03;12.83;;;;;;;19.99;92.22;98398.19;5056257;28;20292;-70
2022/07/24 04:00:08;;;;;;;14.73;13.40;;;;;;;20.00;92.33;98389.81;5055479;28;20316;-70
2022/07/24 04:02:34;;;;;;;13.60;12.50;;;;;;;19.96;92.15;98399.53;5055956;28;20296;-70
2022/07/24 04:05:01;;;;;;;14.70;13.33;;;;;;;20.07;91.73;98400.34;5055694;28;20291;-70
2022/07/24 04:07:27;;;;;;;13.57;12.37;;;;;;;19.96;92.21;98398.72;5055396;28;20205;-70
2022/07/24 04:09:53;;;;;;;14.00;12.73;;;;;;;20.08;91.22;98407.34;5055290;28;20726;-70
2022/07/24 04:12:20;;;;;;;14.50;13.20;;;;;;;20.08;91.64;98408.16;5055345;28;20296;-70
2022/07/24 04:14:46;;;;;;;14.17;12.97;;;;;;;20.07;91.33;98419.22;5055415;28;20213;-70
2022/07/24 04:17:13;;;;;;;14.23;13.03;;;;;;;20.11;91.13;98410.34;5055270;28;20661;-70
2022/07/24 04:19:39;;;;;;;13.73;12.43;;;;;;;20.14;90.79;98414.38;5055286;28;20236;-70
2022/07/24 04:22:06;;;;;;;14.03;12.87;;;;;;;20.19;90.12;98417.91;5055312;28;20748;-70
2022/07/24 04:24:32;;;;;;;13.73;12.33;;;;;;;20.17;90.05;98417.34;5055224;28;20205;-70
2022/07/24 04:26:58;;;;;;;12.93;11.80;;;;;;;20.17;90.21;98422.75;5055492;28;20313;-70
2022/07/24 04:29:25;;;;;;;13.90;12.80;;;;;;;20.22;90.25;98411.16;5055313;28;20680;-70
2022/07/24 04:31:51;;;;;;;13.00;11.90;;;;;;;20.19;90.02;98427.88;5055347;28;20295;-70
2022/07/24 04:34:18;;;;;;;14.10;12.80;;;;;;;20.20;89.78;98421.38;5055218;28;20213;-70
2022/07/24 04:36:44;;;;;;;13.67;12.33;;;;;;;20.19;90.79;98425.19;5054910;28;20625;-70
2022/07/24 04:39:11;;;;;;;13.30;12.20;;;;;;;20.24;90.45;98423.28;5054781;28;20231;-70
2022/07/24 04:41:37;;;;;;;13.27;12.17;;;;;;;20.29;89.43;98409.78;5055049;28;20231;-70
2022/07/24 04:44:04;;;;;;;13.40;12.30;;;;;;;20.33;89.36;98424.38;5055362;28;20553;-70
2022/07/24 04:46:30;;;;;;;13.80;12.70;;;;;;;20.39;90.08;98425.16;5054799;28;20209;-70
2022/07/24 04:48:57;;;;;;;13.03;11.83;;;;;;;20.48;89.08;98418.94;5054985;28;20319;-70
2022/07/24 04:51:23;;;;;;;14.03;12.70;;;;;;;20.54;88.97;98422.44;5055064;28;20203;-70
2022/07/24 04:53:52;;;;;;;14.10;12.97;;;;;;;20.52;89.18;98419.22;5055050;28;20623;-70
2022/07/24 04:56:20;;;;;;;14.30;12.77;;;;;;;20.55;87.69;98434.84;5055091;28;20300;-70
2022/07/24 04:58:46;;;;;;;13.87;12.67;;;;;;;20.57;87.84;98428.09;5054732;28;20268;-70
2022/07/24 05:01:13;;;;;;;12.93;11.93;;;;;;;20.65;87.67;98432.94;5054891;28;20555;-70
2022/07/24 05:03:39;;;;;;;12.80;11.70;;;;;;;20.72;87.34;98433.47;5054442;28;20211;-70
2022/07/24 05:06:06;;;;;;;13.50;12.10;;;;;;;20.77;86.60;98440.75;5054718;28;20206;-70
2022/07/24 05:08:33;;;;;;;12.60;11.60;;;;;;;20.96;85.22;98439.09;5054757;28;20312;-70
2022/07/24 05:10:59;;;;;;;13.13;11.93;;;;;;;21.31;82.67;98438.94;5054477;28;20682;-70
2022/07/24 05:13:25;;;;;;;12.83;11.63;;;;;;;21.75;79.36;98446.00;5054339;28;20292;-70
2022/07/24 05:15:52;;;;;;;11.77;10.83;;;;;;;22.28;76.80;98450.47;5054278;28;20239;-70
2022/07/24 05:18:19;;;;;;;12.07;10.80;;;;;;;22.58;75.51;98444.00;5054547;28;20209;-70
2022/07/24 05:20:45;;;;;;;13.13;11.93;;;;;;;22.65;74.11;98445.28;5054415;28;20232;-70
2022/07/24 05:23:11;;;;;;;11.57;10.73;;;;;;;22.63;74.46;98454.78;5054404;28;20205;-70
2022/07/24 05:25:38;;;;;;;11.97;10.87;;;;;;;22.45;75.15;98444.63;5054399;28;20288;-70
2022/07/24 05:28:05;;;;;;;11.57;10.37;;;;;;;22.04;77.07;98443.38;5054320;28;20751;-70
2022/07/24 05:30:31;;;;;;;11.10;10.10;;;;;;;21.93;77.33;98445.34;5054138;28;20769;-70
2022/07/24 05:32:57;;;;;;;11.70;10.73;;;;;;;21.84;77.55;98435.41;5053922;28;20209;-70
2022/07/24 05:35:24;;;;;;;12.37;11.27;;;;;;;21.66;78.38;98442.25;5054191;28;20205;-70
2022/07/24 05:37:50;;;;;;;12.50;11.20;;;;;;;21.56;79.07;98441.53;5053996;28;20659;-70
2022/07/24 05:40:17;;;;;;;13.17;11.87;;;;;;;21.51;78.58;98438.81;5053853;28;20260;-70
2022/07/24 05:42:43;;;;;;;12.23;11.07;;;;;;;21.59;78.69;98439.06;5053749;28;20308;-70
2022/07/24 05:45:10;;;;;;;13.40;12.13;;;;;;;21.80;77.63;98435.13;5053973;28;20201;-70
2022/07/24 05:47:41;;;;;;;12.60;11.50;;;;;;;21.94;77.55;98436.16;5053904;28;20209;-70
2022/07/24 05:50:10;;;;;;;11.63;10.67;;;;;;;21.90;77.08;98436.97;5053584;28;20232;-70
2022/07/24 05:52:36;;;;;;;12.23;11.13;;;;;;;21.97;76.52;98440.19;5054541;28;20215;-70
2022/07/24 05:55:04;;;;;;;11.37;10.37;;;;;;;22.08;75.82;98430.88;5053575;28;20689;-70
2022/07/24 05:57:31;;;;;;;12.77;11.60;;;;;;;22.11;75.09;98438.44;5053800;28;20232;-70
2022/07/24 05:59:57;;;;;;;12.33;11.23;;;;;;;22.19;74.48;98435.94;5053168;28;20243;-70
2022/07/24 06:02:24;;;;;;;12.83;11.73;;;;;;;22.12;74.95;98435.44;5053571;28;20296;-70
2022/07/24 06:04:50;;;;;;;12.00;10.90;;;;;;;22.30;75.07;98439.38;5054386;28;20309;-70
2022/07/24 06:07:16;;;;;;;11.33;10.37;;;;;;;22.50;75.13;98434.59;5053557;28;20573;-70
2022/07/24 06:09:43;;;;;;;12.27;11.07;;;;;;;22.50;73.30;98436.47;5053766;28;20221;-70
2022/07/24 06:12:10;;;;;;;12.57;11.33;;;;;;;22.57;72.88;98439.69;5053563;28;20205;-70
2022/07/24 06:14:36;;;;;;;11.27;10.25;;;;;;;22.69;73.00;98434.66;5052846;28;20296;-70
2022/07/24 06:17:03;;;;;;;12.05;11.05;;;;;;;22.55;71.87;98428.28;5053530;28;20205;-70
2022/07/24 06:19:29;;;;;;;11.65;10.63;;;;;;;22.61;71.93;98432.59;5053661;28;20229;-70
2022/07/24 06:21:56;;;;;;;11.48;10.48;;;;;;;22.56;71.27;98430.72;5054068;28;20235;-70
2022/07/24 06:24:22;;;;;;;10.60;9.60;;;;;;;22.70;71.63;98442.50;5053115;28;20209;-70
2022/07/24 06:26:48;;;;;;;11.38;10.27;;;;;;;22.84;70.87;98434.50;5053440;28;20212;-70
2022/07/24 06:29:15;;;;;;;11.05;10.00;;;;;;;22.97;71.65;98444.66;5053002;28;20655;-70
2022/07/24 06:31:41;;;;;;;10.57;9.77;;;;;;;22.95;70.51;98452.25;5052927;28;20246;-70
2022/07/24 06:34:08;;;;;;;10.63;9.77;;;;;;;23.09;69.78;98445.88;5053986;28;20300;-70
2022/07/24 06:36:34;;;;;;;11.15;10.20;;;;;;;23.03;68.92;98448.91;5053070;28;20205;-70
2022/07/24 06:39:00;;;;;;;10.40;9.30;;;;;;;23.02;69.09;98447.31;5052985;28;20228;-70
2022/07/24 06:41:27;;;;;;;10.50;9.52;;;;;;;23.17;68.15;98447.94;5052693;28;20718;-70
2022/07/24 06:43:53;;;;;;;10.52;9.55;;;;;;;23.31;68.42;98443.44;5052694;28;20660;-70
2022/07/24 06:46:20;;;;;;;10.55;9.65;;;;;;;23.34;67.05;98442.84;5053016;28;20287;-70
2022/07/24 06:48:46;;;;;;;10.93;9.85;;;;;;;23.57;66.68;98450.13;5052589;28;20659;-70
2022/07/24 06:51:13;;;;;;;9.48;8.70;;;;;;;23.69;65.42;98438.84;5052959;28;20291;-70
2022/07/24 06:53:40;;;;;;;10.20;9.30;;;;;;;23.66;65.19;98437.50;5053513;28;20578;-70
2022/07/24 06:56:07;;;;;;;10.35;9.40;;;;;;;23.76;64.99;98444.72;5052924;28;20645;-70
2022/07/24 06:58:34;;;;;;;9.70;8.88;;;;;;;23.75;63.67;98440.38;5052429;28;20231;-70
2022/07/24 07:01:00;;;;;;;8.98;8.18;;;;;;;23.67;63.59;98441.03;5052885;28;20214;-70
2022/07/24 07:03:27;;;;;;;9.57;8.63;;;;;;;23.74;64.10;98433.34;5052653;28;20295;-70
2022/07/24 07:05:53;;;;;;;10.07;9.18;;;;;;;23.86;63.88;98439.13;5052690;28;20216;-70
2022/07/24 07:08:19;;;;;;;8.95;8.07;;;;;;;23.77;62.22;98443.59;5052733;28;20205;-70
2022/07/24 07:10:46;;;;;;;10.30;9.13;;;;;;;23.84;63.39;98431.25;5052390;28;20665;-70
2022/07/24 07:13:12;;;;;;;11.13;10.13;;;;;;;23.92;62.38;98438.00;5052688;28;20259;-70
2022/07/24 07:15:39;;;;;;;10.77;9.10;;;;;;;23.94;62.33;98443.94;5052790;28;20291;-70
2022/07/24 07:18:05;;;;;;;9.40;8.60;;;;;;;24.13;62.34;98437.38;5052387;28;20209;-70
2022/07/24 07:20:32;;;;;;;9.40;8.57;;;;;;;24.09;61.27;98435.53;5052565;28;20236;-70
2022/07/24 07:22:58;;;;;;;9.55;8.55;;;;;;;24.14;60.95;98440.88;5052846;28;20215;-70
2022/07/24 07:25:25;;;;;;;9.98;8.98;;;;;;;24.18;61.03;98439.19;5053898;28;20205;-70
2022/07/24 07:27:51;;;;;;;9.23;8.30;;;;;;;24.18;61.13;98431.84;5056535;28;20240;-70
2022/07/24 07:30:18;;;;;;;9.48;8.65;;;;;;;24.27;60.23;98440.13;5056336;28;20776;-70
2022/07/24 07:32:44;;;;;;;8.88;8.13;;;;;;;24.28;59.67;98437.09;5056321;28;20212;-70
2022/07/24 07:35:11;;;;;;;9.38;8.30;;;;;;;24.59;60.19;98440.09;5056190;28;20630;-71
2022/07/24 07:37:37;;;;;;;8.63;7.78;;;;;;;24.71;58.19;98435.00;5056047;28;20295;-70
2022/07/24 07:40:04;;;;;;;8.52;7.60;;;;;;;24.92;56.95;98431.59;5056170;28;20221;-70
2022/07/24 07:42:30;;;;;;;8.25;7.50;;;;;;;24.97;56.33;98438.88;5055749;28;20675;-70
2022/07/24 07:44:56;;;;;;;8.43;7.82;;;;;;;25.03;56.94;98432.19;5056072;28;20291;-70
2022/07/24 07:47:23;;;;;;;9.25;8.38;;;;;;;25.18;57.36;98440.03;5056245;28;20653;-70
2022/07/24 07:49:49;;;;;;;8.52;7.85;;;;;;;25.18;55.51;98440.03;5056170;28;20229;-70
2022/07/24 07:52:16;;;;;;;8.60;7.90;;;;;;;25.19;55.18;98441.69;5055836;28;20293;-70
2022/07/24 07:54:42;;;;;;;9.75;9.05;;;;;;;24.94;56.09;98434.00;5056096;28;20201;-70
2022/07/24 07:57:09;;;;;;;8.43;7.63;;;;;;;24.93;56.51;98443.28;5055588;28;20216;-70
2022/07/24 07:59:35;;;;;;;8.45;7.78;;;;;;;24.90;57.19;98446.59;5055335;28;20265;-70
2022/07/24 08:02:01;;;;;;;7.85;7.18;;;;;;;24.87;56.15;98434.41;5055413;28;20229;-70
2022/07/24 08:04:28;;;;;;;8.05;7.32;;;;;;;25.21;55.88;98444.91;5056147;28;20216;-70
2022/07/24 08:06:54;;;;;;;7.30;6.63;;;;;;;25.25;53.14;98441.28;5055811;28;20292;-70
2022/07/24 08:09:21;;;;;;;7.63;7.03;;;;;;;25.37;52.36;98441.56;5055439;28;20737;-70
2022/07/24 08:11:48;;;;;;;7.55;6.80;;;;;;;25.63;52.04;98436.38;5055739;28;20204;-70
2022/07/24 08:14:14;;;;;;;7.22;6.63;;;;;;;25.55;52.36;98439.84;5055781;28;20308;-70
2022/07/24 08:16:41;;;;;;;7.90;7.20;;;;;;;25.70;51.71;98431.31;5055735;28;20205;-70
2022/07/24 08:19:07;;;;;;;7.32;6.63;;;;;;;25.77;52.30;98439.88;5055445;28;20312;-70
2022/07/24 08:21:34;;;;;;;8.20;7.50;;;;;;;25.44;51.41;98438.44;5055396;28;20579;-70
2022/07/24 08:24:00;;;;;;;7.95;7.15;;;;;;;25.84;50.48;98432.09;5055326;28;20293;-70
2022/07/24 08:26:30;;;;;;;7.80;7.10;;;;;;;25.96;50.06;98430.44;5055003;28;20296;-69
2022/07/24 08:28:57;;;;;;;7.43;6.82;;;;;;;25.63;50.93;98430.94;5054992;28;20225;-70
2022/07/24 08:31:25;;;;;;;7.82;6.97;;;;;;;25.63;50.40;98429.03;5055486;28;20201;-70
2022/07/24 08:33:51;;;;;;;7.30;6.68;;;;;;;25.94;49.91;98426.41;5055056;28;20723;-70
2022/07/24 08:36:18;;;;;;;7.30;6.43;;;;;;;26.10;48.77;98420.28;5054704;28;20292;-70
2022/07/24 08:38:44;;;;;;;7.50;6.68;;;;;;;26.27;47.76;98423.13;5054545;28;20614;-70
2022/07/24 08:41:11;;;;;;;6.63;6.13;;;;;;;26.30;48.70;98422.53;5054491;28;20253;-70
2022/07/24 08:43:37;;;;;;;7.30;6.75;;;;;;;25.93;48.58;98419.38;5054689;28;20205;-70
2022/07/24 08:46:09;;;;;;;7.13;6.57;;;;;;;26.02;49.01;98412.06;5054990;28;20292;-70
2022/07/24 08:48:36;;;;;;;8.75;6.32;;;;;;;26.08;49.00;98411.63;5055150;28;20319;-70
2022/07/24 08:51:03;;;;;;;6.15;5.65;;;;;;;26.60;48.28;98410.84;5055030;28;20296;-70
2022/07/24 08:53:30;;;;;;;7.10;6.45;;;;;;;26.64;46.87;98417.28;5054974;28;20307;-70
2022/07/24 08:55:57;;;;;;;7.15;6.53;;;;;;;26.62;48.62;98421.44;5054841;28;20209;-70
2022/07/24 08:58:23;;;;;;;7.65;6.70;;;;;;;26.36;47.57;98417.72;5054688;28;20296;-70
2022/07/24 09:00:50;;;;;;;6.90;6.38;;;;;;;26.29;48.34;98417.38;5054617;28;20321;-70
2022/07/24 09:03:16;;;;;;;7.38;6.65;;;;;;;26.63;47.73;98417.59;5054317;28;20691;-70
2022/07/24 09:05:59;;;;;;;7.53;6.82;;;;;;;26.72;47.72;98410.25;5054612;28;20379;-70
2022/07/24 09:08:26;;;;;;;7.50;6.68;;;;;;;27.02;47.21;98409.41;5054367;28;20229;-70
2022/07/24 09:11:00;;;;;;;7.45;6.85;;;;;;;27.12;47.43;98416.50;5054617;28;20289;-70
2022/07/24 09:13:29;;;;;;;9.38;8.63;;;;;;;27.13;46.47;98410.72;5054299;28;20633;-70
2022/07/24 09:15:56;;;;;;;9.00;8.20;;;;;;;27.16;46.28;98407.34;5054268;28;20580;-71
2022/07/24 09:18:34;;;;;;;7.93;7.20;;;;;;;26.90;46.81;98406.47;5054158;28;20215;-70
2022/07/24 09:21:13;;;;;;;6.57;6.07;;;;;;;27.33;45.52;98409.34;5054228;28;20312;-70
2022/07/24 09:23:41;;;;;;;7.88;6.28;;;;;;;27.64;45.55;98408.13;5053889;28;20284;-70
2022/07/24 09:26:08;;;;;;;9.68;6.70;;;;;;;27.40;46.07;98412.44;5054044;28;20686;-70
2022/07/24 09:28:49;;;;;;;7.82;7.13;;;;;;;27.15;45.37;98408.50;5054586;28;20316;-70
2022/07/24 09:31:15;;;;;;;7.05;6.53;;;;;;;27.90;44.62;98414.41;5054231;28;20567;-70
2022/07/24 09:33:42;;;;;;;7.82;7.03;;;;;;;28.00;43.63;98411.38;5054224;28;20311;-70
2022/07/24 09:36:14;;;;;;;7.30;6.60;;;;;;;28.24;43.73;98403.44;5054233;28;20209;-70
2022/07/24 09:38:49;;;;;;;7.18;6.57;;;;;;;28.46;42.78;98403.28;5054209;28;20221;-70
2022/07/24 09:41:24;;;;;;;7.45;6.85;;;;;;;27.69;43.54;98413.44;5053675;28;20205;-71
2022/07/24 09:44:04;;;;;;;8.55;6.93;;;;;;;27.99;44.47;98403.50;5053935;28;20200;-70
2022/07/24 09:46:30;;;;;;;12.65;7.63;;;;;;;27.41;45.01;98406.66;5054415;28;20296;-70
2022/07/24 09:49:00;;;;;;;7.68;7.07;;;;;;;28.22;43.66;98402.16;5053792;28;20308;-70
2022/07/24 09:51:28;;;;;;;7.38;6.88;;;;;;;28.12;43.95;98406.03;5053896;28;20304;-70
2022/07/24 09:54:00;;;;;;;7.30;6.70;;;;;;;27.78;44.49;98400.56;5054339;28;20213;-70
2022/07/24 09:56:27;;;;;;;7.03;6.43;;;;;;;27.23;45.19;98399.56;5053948;28;20193;-70
2022/07/24 09:58:59;;;;;;;7.65;6.95;;;;;;;27.19;46.41;98405.94;5053312;28;20237;-70
2022/07/24 10:01:27;;;;;;;8.43;7.55;;;;;;;27.20;46.21;98405.63;5053734;28;20237;-70
2022/07/24 10:03:56;;;;;;;6.82;6.32;;;;;;;27.42;44.92;98401.97;5054286;28;20209;-70
2022/07/24 10:06:30;;;;;;;7.75;6.97;;;;;;;27.17;45.40;98400.78;5053615;28;20232;-70
2022/07/24 10:08:57;;;;;;;7.35;6.78;;;;;;;26.91;45.99;98397.19;5053344;28;20229;-70
2022/07/24 10:11:24;;;;;;;7.53;6.80;;;;;;;27.10;46.72;98395.78;5053035;28;20578;-70
2022/07/24 10:13:51;;;;;;;7.85;7.15;;;;;;;26.94;45.91;98391.06;5053624;28;20209;-70
2022/07/24 10:16:32;;;;;;;7.63;7.03;;;;;;;26.91;46.91;98389.00;5053228;28;20631;-70
2022/07/24 10:19:05;;;;;;;7.55;6.82;;;;;;;27.68;43.98;98387.25;5053031;28;20569;-70
2022/07/24 10:21:34;;;;;;;7.78;7.13;;;;;;;27.93;44.53;98385.63;5053500;28;20221;-70
2022/07/24 10:24:10;;;;;;;8.18;7.38;;;;;;;28.08;43.10;98383.19;5052798;28;20712;-70
2022/07/24 10:26:44;;;;;;;7.90;7.18;;;;;;;28.40;43.40;98374.47;5053089;28;20209;-70
2022/07/24 10:29:22;;;;;;;7.65;6.95;;;;;;;28.39;42.45;98380.25;5052979;28;20790;-70
2022/07/24 10:31:55;;;;;;;7.65;6.95;;;;;;;28.77;41.20;98375.63;5053110;28;20273;-70
2022/07/24 10:34:47;;;;;;;7.32;6.82;;;;;;;28.66;43.96;98366.19;5053234;28;20185;-70
2022/07/24 10:37:55;;;;;;;8.05;7.35;;;;;;;28.01;42.54;98377.44;5051838;28;20356;-70
2022/07/24 10:40:25;;;;;;;7.88;7.18;;;;;;;27.67;43.01;98382.09;5032051;28;20231;-70
2022/07/24 10:43:08;;;;;;;7.72;7.13;;;;;;;28.41;42.45;98370.63;5052122;28;20231;-70
2022/07/24 10:45:39;;;;;;;7.38;6.85;;;;;;;28.84;40.89;98370.47;5052907;28;20238;-70
2022/07/24 10:48:34;;;;;;;7.32;6.63;;;;;;;28.97;41.03;98367.47;5052860;28;20193;-70
2022/07/24 10:51:05;;;;;;;7.65;7.10;;;;;;;29.24;41.21;98367.03;5047238;28;20587;-70
2022/07/24 10:53:54;;;;;;;7.82;7.07;;;;;;;29.44;41.20;98362.72;5053039;28;20193;-70
2022/07/24 10:56:21;;;;;;;7.15;6.55;;;;;;;29.34;40.23;98363.88;5052473;28;20724;-70
2022/07/24 10:59:10;;;;;;;7.50;6.85;;;;;;;29.13;40.28;98356.78;5052579;28;20229;-70
2022/07/24 11:01:42;;;;;;;7.63;6.93;;;;;;;29.58;39.96;98364.09;5055400;28;20215;-70
2022/07/24 11:04:22;;;;;;;7.53;6.88;;;;;;;29.23;39.79;98359.94;5056700;28;20247;-70
2022/07/24 11:06:51;;;;;;;6.32;5.82;;;;;;;29.10;39.86;98358.25;5056394;28;20695;-70
2022/07/24 11:09:19;;;;;;;7.25;6.70;;;;;;;28.37;41.21;98357.88;5055979;28;20224;-71
2022/07/24 11:11:52;;;;;;;6.68;6.13;;;;;;;28.28;40.85;98351.63;5056352;28;20287;-70
2022/07/24 11:14:26;;;;;;;7.95;6.78;;;;;;;28.30;40.42;98361.13;5055826;28;20205;-71
2022/07/24 11:16:53;;;;;;;7.45;6.60;;;;;;;28.48;41.41;98351.75;5056077;28;20209;-71
2022/07/24 11:19:20;;;;;;;6.45;5.95;;;;;;;29.14;39.75;98347.44;5056170;28;20688;-70
2022/07/24 11:21:48;;;;;;;6.97;6.43;;;;;;;29.50;38.65;98342.19;5055553;28;20704;-70
2022/07/24 11:24:14;;;;;;;6.70;6.20;;;;;;;29.60;39.21;98348.09;5055955;28;20616;-70
2022/07/24 11:26:42;;;;;;;7.10;6.40;;;;;;;29.49;38.89;98341.41;5056225;28;20748;-71